createdAt,value
2022-12-08T00:00:34.727Z,85
2022-12-08T00:01:34.762Z,85.1
2022-12-08T00:02:34.891Z,85.3
2022-12-08T00:03:34.865Z,85
2022-12-08T00:04:34.715Z,85.2
2022-12-08T00:05:34.729Z,85.2
2022-12-08T00:06:34.737Z,85
2022-12-08T00:07:34.717Z,85
2022-12-08T00:08:34.728Z,85.3
2022-12-08T00:09:38.762Z,85.4
2022-12-08T00:10:48.892Z,85.5
2022-12-08T00:11:34.728Z,85.4
2022-12-08T00:12:34.940Z,85.5
2022-12-08T00:13:34.756Z,85.3
2022-12-08T00:14:34.738Z,85.2
2022-12-08T00:15:34.721Z,85.1
2022-12-08T00:17:34.761Z,85
2022-12-08T00:18:34.770Z,85
2022-12-08T00:19:34.789Z,85.2
2022-12-08T00:20:34.744Z,85.3
2022-12-08T00:21:34.731Z,85.1
2022-12-08T00:22:34.725Z,85
2022-12-08T00:23:34.724Z,85.1
2022-12-08T00:24:34.719Z,85.2
2022-12-08T00:25:34.726Z,85.2
2022-12-08T00:26:34.719Z,85.2
2022-12-08T00:27:34.757Z,85
2022-12-08T00:28:34.747Z,84.9
2022-12-08T00:29:34.726Z,85.2
2022-12-08T00:30:34.724Z,85.3
2022-12-08T00:31:34.805Z,85.2
2022-12-08T00:32:34.729Z,85.3
2022-12-08T00:33:34.725Z,85.2
2022-12-08T00:34:34.726Z,85.1
2022-12-08T00:35:38.716Z,85
2022-12-08T00:36:34.734Z,85
2022-12-08T00:37:36.444Z,85.1
2022-12-08T00:38:34.729Z,84.8
2022-12-08T00:39:34.746Z,84.7
2022-12-08T00:40:34.728Z,84.6
2022-12-08T00:41:34.729Z,84.5
2022-12-08T00:42:34.717Z,84.9
2022-12-08T00:43:34.737Z,84.9
2022-12-08T00:44:34.750Z,85.1
2022-12-08T00:45:34.796Z,85.1
2022-12-08T00:46:34.722Z,85.1
2022-12-08T00:47:34.796Z,85
2022-12-08T00:48:34.724Z,85.1
2022-12-08T00:49:34.723Z,85
2022-12-08T00:50:34.760Z,84.9
2022-12-08T00:51:34.724Z,84.9
2022-12-08T00:52:34.723Z,85
2022-12-08T00:53:34.721Z,85.1
2022-12-08T00:54:34.723Z,85.1
2022-12-08T00:55:34.709Z,85.1
2022-12-08T00:56:34.780Z,85.1
2022-12-08T00:57:34.733Z,85.1
2022-12-08T00:58:34.733Z,85.2
2022-12-08T00:59:34.735Z,85
2022-12-08T01:00:34.722Z,85
2022-12-08T01:01:34.803Z,84.9
2022-12-08T01:02:34.713Z,84.8
2022-12-08T01:03:34.780Z,85.1
2022-12-08T01:04:34.734Z,85.1
2022-12-08T01:05:34.786Z,85.2
2022-12-08T01:06:34.709Z,85.3
2022-12-08T01:07:34.715Z,85.4
2022-12-08T01:08:34.715Z,85.3
2022-12-08T01:09:34.735Z,85.3
2022-12-08T01:10:34.731Z,85.4
2022-12-08T01:11:34.728Z,85.3
2022-12-08T01:12:34.725Z,85.3
2022-12-08T01:13:34.735Z,85.2
2022-12-08T01:14:34.714Z,85.3
2022-12-08T01:15:34.727Z,85.2
2022-12-08T01:16:34.802Z,85.1
2022-12-08T01:17:34.740Z,85.1
2022-12-08T01:18:34.715Z,85
2022-12-08T01:19:34.725Z,85
2022-12-08T01:20:34.727Z,85
2022-12-08T01:21:34.741Z,85
2022-12-08T01:22:34.715Z,84.9
2022-12-08T01:23:34.719Z,84.8
2022-12-08T01:24:34.711Z,84.8
2022-12-08T01:25:34.891Z,84.9
2022-12-08T01:26:34.715Z,84.8
2022-12-08T01:27:34.726Z,84.6
2022-12-08T01:28:34.750Z,84.7
2022-12-08T01:29:34.716Z,84.6
2022-12-08T01:30:34.811Z,84.6
2022-12-08T01:31:34.729Z,84.6
2022-12-08T01:32:34.718Z,84.5
2022-12-08T01:33:34.718Z,84.6
2022-12-08T01:34:34.707Z,84.6
2022-12-08T01:35:34.702Z,84.6
2022-12-08T01:36:34.762Z,84.6
2022-12-08T01:37:34.708Z,84.7
2022-12-08T01:38:34.765Z,84.7
2022-12-08T01:39:34.711Z,84.6
2022-12-08T01:40:34.725Z,84.7
2022-12-08T01:41:34.758Z,84.3
2022-12-08T01:42:34.720Z,84.3
2022-12-08T01:43:34.718Z,84.2
2022-12-08T01:44:34.681Z,84.3
2022-12-08T01:45:34.694Z,84.5
2022-12-08T01:46:34.777Z,84.5
2022-12-08T01:47:34.791Z,84.6
2022-12-08T01:48:34.707Z,84.6
2022-12-08T01:49:34.698Z,84.6
2022-12-08T01:50:34.699Z,84.5
2022-12-08T01:51:34.726Z,84.3
2022-12-08T01:52:34.723Z,84.4
2022-12-08T01:53:34.713Z,84.5
2022-12-08T01:54:34.729Z,84.6
2022-12-08T01:55:34.694Z,84.6
2022-12-08T01:56:34.727Z,84.4
2022-12-08T01:57:34.719Z,84.5
2022-12-08T01:58:34.716Z,84.6
2022-12-08T01:59:34.687Z,84.7
2022-12-08T02:00:34.732Z,84.7
2022-12-08T02:01:34.833Z,84.6
2022-12-08T02:02:34.846Z,84.6
2022-12-08T02:03:34.691Z,84.6
2022-12-08T02:04:34.684Z,84.6
2022-12-08T02:05:34.682Z,84.5
2022-12-08T02:06:34.694Z,84.6
2022-12-08T02:07:32.314Z,84.5
2022-12-08T02:08:34.689Z,84.5
2022-12-08T02:09:34.690Z,84.5
2022-12-08T02:10:34.695Z,84.5
2022-12-08T02:11:34.692Z,84.4
2022-12-08T02:12:34.683Z,84.4
2022-12-08T02:13:34.701Z,84.3
2022-12-08T02:14:34.732Z,84.4
2022-12-08T02:15:34.744Z,84.3
2022-12-08T02:16:34.688Z,84.3
2022-12-08T02:17:34.694Z,84.2
2022-12-08T02:18:34.678Z,84.3
2022-12-08T02:19:34.954Z,84.4
2022-12-08T02:20:34.683Z,84.2
2022-12-08T02:21:34.764Z,84.1
2022-12-08T02:22:34.681Z,84.2
2022-12-08T02:23:34.732Z,84.2
2022-12-08T02:24:34.690Z,84.2
2022-12-08T02:25:34.690Z,84.3
2022-12-08T02:26:34.683Z,84.1
2022-12-08T02:27:34.691Z,84.1
2022-12-08T02:28:34.735Z,84.1
2022-12-08T02:29:34.690Z,84
2022-12-08T02:30:34.768Z,84.3
2022-12-08T02:31:34.682Z,84.2
2022-12-08T02:32:34.704Z,84.1
2022-12-08T02:33:34.689Z,84.1
2022-12-08T02:34:34.764Z,84.3
2022-12-08T02:35:34.712Z,84.2
2022-12-08T02:36:34.705Z,84.1
2022-12-08T02:37:34.702Z,84
2022-12-08T02:38:34.702Z,84.2
2022-12-08T02:39:34.686Z,84.2
2022-12-08T02:40:34.696Z,84.3
2022-12-08T02:41:34.696Z,84.1
2022-12-08T02:42:34.694Z,84.2
2022-12-08T02:43:34.703Z,84.2
2022-12-08T02:44:34.682Z,84.1
2022-12-08T02:45:34.675Z,84
2022-12-08T02:46:34.913Z,84.1
2022-12-08T02:47:34.732Z,84
2022-12-08T02:48:34.701Z,83.8
2022-12-08T02:49:34.690Z,83.7
2022-12-08T02:50:34.696Z,83.3
2022-12-08T02:51:34.683Z,83.2
2022-12-08T02:52:34.679Z,83.3
2022-12-08T02:53:34.772Z,83.3
2022-12-08T02:54:34.704Z,83.6
2022-12-08T02:55:34.689Z,83.6
2022-12-08T02:56:34.710Z,83.5
2022-12-08T02:57:34.711Z,83.6
2022-12-08T02:58:34.686Z,83.5
2022-12-08T02:59:34.685Z,83.6
2022-12-08T03:00:34.736Z,83.5
2022-12-08T03:01:34.745Z,83.5
2022-12-08T03:02:34.835Z,83.6
2022-12-08T03:03:34.691Z,83.3
2022-12-08T03:04:34.680Z,83.2
2022-12-08T03:05:34.706Z,83.3
2022-12-08T03:06:34.682Z,83.4
2022-12-08T03:07:34.686Z,83.3
2022-12-08T03:08:34.682Z,83.3
2022-12-08T03:09:34.682Z,83.3
2022-12-08T03:10:34.679Z,83.4
2022-12-08T03:11:34.685Z,83.6
2022-12-08T03:12:34.675Z,83.4
2022-12-08T03:13:34.715Z,83.4
2022-12-08T03:14:34.679Z,83.4
2022-12-08T03:15:34.740Z,83.4
2022-12-08T03:16:34.689Z,83.4
2022-12-08T03:17:34.701Z,83.5
2022-12-08T03:18:34.673Z,83.4
2022-12-08T03:19:34.670Z,83.4
2022-12-08T03:20:34.768Z,83.4
2022-12-08T03:21:34.673Z,83.4
2022-12-08T03:22:34.684Z,83.4
2022-12-08T03:23:34.696Z,83.7
2022-12-08T03:24:34.689Z,83.6
2022-12-08T03:25:34.731Z,83.5
2022-12-08T03:26:34.793Z,83.7
2022-12-08T03:27:34.692Z,83.8
2022-12-08T03:28:34.699Z,83.9
2022-12-08T03:29:34.747Z,83.7
2022-12-08T03:30:34.689Z,83.7
2022-12-08T03:31:34.859Z,83.6
2022-12-08T03:32:34.673Z,83.5
2022-12-08T03:33:34.700Z,83.8
2022-12-08T03:34:34.684Z,83.7
2022-12-08T03:36:34.786Z,83.8
2022-12-08T03:37:34.708Z,83.8
2022-12-08T03:38:34.685Z,83.8
2022-12-08T03:39:34.695Z,83.5
2022-12-08T03:40:34.720Z,83.5
2022-12-08T03:41:34.682Z,83.4
2022-12-08T03:42:34.692Z,83.2
2022-12-08T03:43:34.695Z,83.2
2022-12-08T03:44:34.679Z,83.1
2022-12-08T03:45:34.671Z,83.1
2022-12-08T03:46:34.688Z,83.1
2022-12-08T03:47:34.692Z,83
2022-12-08T03:48:34.679Z,82.9
2022-12-08T03:49:34.669Z,82.8
2022-12-08T03:50:34.690Z,82.8
2022-12-08T03:51:34.679Z,82.9
2022-12-08T03:52:34.688Z,82.9
2022-12-08T03:53:34.678Z,83
2022-12-08T03:54:34.670Z,83
2022-12-08T03:55:34.670Z,82.9
2022-12-08T03:56:34.797Z,83
2022-12-08T03:57:34.678Z,83.1
2022-12-08T03:58:37.573Z,83.2
2022-12-08T03:59:34.688Z,83.3
2022-12-08T04:00:34.675Z,83.3
2022-12-08T04:01:34.743Z,83.5
2022-12-08T04:02:34.717Z,83.5
2022-12-08T04:03:34.751Z,83.4
2022-12-08T04:04:34.877Z,83.2
2022-12-08T04:05:34.675Z,83.3
2022-12-08T04:06:34.685Z,83.4
2022-12-08T04:07:34.680Z,83.4
2022-12-08T04:08:34.708Z,83.6
2022-12-08T04:09:34.703Z,83.4
2022-12-08T04:10:34.904Z,83.3
2022-12-08T04:11:34.683Z,83.5
2022-12-08T04:13:34.687Z,83.6
2022-12-08T04:14:34.691Z,83.8
2022-12-08T04:15:34.860Z,83.7
2022-12-08T04:16:34.818Z,83.7
2022-12-08T04:17:34.680Z,83.9
2022-12-08T04:18:34.671Z,83.8
2022-12-08T04:19:34.687Z,83.8
2022-12-08T04:20:34.683Z,83.8
2022-12-08T04:21:34.682Z,83.8
2022-12-08T04:22:34.686Z,83.6
2022-12-08T04:23:34.764Z,83.7
2022-12-08T04:24:34.687Z,83.7
2022-12-08T04:25:34.680Z,83.7
2022-12-08T04:26:34.680Z,83.7
2022-12-08T04:27:34.707Z,83.7
2022-12-08T04:28:44.698Z,83.7
2022-12-08T04:29:34.675Z,83.3
2022-12-08T04:30:34.676Z,83.5
2022-12-08T04:31:34.747Z,83.4
2022-12-08T04:32:34.676Z,83.6
2022-12-08T04:33:34.680Z,83.8
2022-12-08T04:34:34.752Z,83.7
2022-12-08T04:35:34.674Z,83.9
2022-12-08T04:36:34.674Z,83.9
2022-12-08T04:37:34.694Z,83.9
2022-12-08T04:38:34.675Z,84.1
2022-12-08T04:39:34.671Z,84.1
2022-12-08T04:40:34.675Z,84.1
2022-12-08T04:41:34.680Z,84.2
2022-12-08T04:42:34.684Z,84.1
2022-12-08T04:43:34.774Z,84.1
2022-12-08T04:44:34.676Z,84.2
2022-12-08T04:45:34.695Z,84.2
2022-12-08T04:46:38.945Z,84.3
2022-12-08T04:47:34.683Z,84.3
2022-12-08T04:48:34.697Z,84.3
2022-12-08T04:49:34.665Z,84.5
2022-12-08T04:50:34.766Z,84.4
2022-12-08T04:51:34.789Z,84.7
2022-12-08T04:52:34.676Z,84.8
2022-12-08T04:53:34.667Z,84.7
2022-12-08T04:54:34.710Z,85.1
2022-12-08T04:55:34.684Z,85.2
2022-12-08T04:56:34.692Z,85.3
2022-12-08T04:57:34.675Z,85.3
2022-12-08T04:58:34.737Z,85.5
2022-12-08T04:59:34.672Z,85.3
2022-12-08T05:00:34.718Z,85.4
2022-12-08T05:01:34.842Z,85.6
2022-12-08T05:02:34.766Z,85.6
2022-12-08T05:03:34.664Z,85.7
2022-12-08T05:04:34.763Z,85.6
2022-12-08T05:05:34.682Z,85.7
2022-12-08T05:06:34.733Z,85.8
2022-12-08T05:07:34.680Z,85.7
2022-12-08T05:08:34.780Z,86
2022-12-08T05:09:34.679Z,86
2022-12-08T05:10:34.666Z,86
2022-12-08T05:11:34.678Z,86.2
2022-12-08T05:12:34.681Z,86.2
2022-12-08T05:14:34.674Z,86.2
2022-12-08T05:15:34.672Z,86.3
2022-12-08T05:16:34.766Z,86.2
2022-12-08T05:17:34.676Z,86.3
2022-12-08T05:18:34.674Z,86.2
2022-12-08T05:19:34.671Z,86
2022-12-08T05:20:34.684Z,86.1
2022-12-08T05:21:34.679Z,86.1
2022-12-08T05:22:34.672Z,86.1
2022-12-08T05:23:34.677Z,86
2022-12-08T05:24:34.680Z,85.9
2022-12-08T05:25:34.673Z,86
2022-12-08T05:26:34.679Z,86
2022-12-08T05:27:34.664Z,86.1
2022-12-08T05:28:51.012Z,86.1
2022-12-08T05:29:34.714Z,86.2
2022-12-08T05:30:34.670Z,86.3
2022-12-08T05:31:34.741Z,86.2
2022-12-08T05:32:34.672Z,86.2
2022-12-08T05:33:34.660Z,86.3
2022-12-08T05:34:34.803Z,86.3
2022-12-08T05:35:34.676Z,86.2
2022-12-08T05:36:34.679Z,86.4
2022-12-08T05:37:34.668Z,86.2
2022-12-08T05:38:34.731Z,86.2
2022-12-08T05:39:34.685Z,86
2022-12-08T05:40:34.674Z,86.1
2022-12-08T05:41:34.669Z,86.1
2022-12-08T05:42:34.717Z,86.2
2022-12-08T05:43:34.678Z,86.3
2022-12-08T05:44:34.664Z,86.2
2022-12-08T05:45:34.787Z,86.3
2022-12-08T05:46:34.687Z,86.5
2022-12-08T05:47:36.275Z,86.4
2022-12-08T05:48:34.669Z,86.4
2022-12-08T05:49:34.747Z,86.6
2022-12-08T05:50:34.668Z,86.4
2022-12-08T05:51:34.668Z,86.2
2022-12-08T05:52:34.662Z,86.2
2022-12-08T05:53:34.690Z,86.2
2022-12-08T05:54:34.667Z,86.2
2022-12-08T05:55:34.687Z,86
2022-12-08T05:56:34.876Z,85.8
2022-12-08T05:57:34.687Z,85.9
2022-12-08T05:58:34.690Z,86.1
2022-12-08T05:59:34.661Z,86.3
2022-12-08T06:00:34.702Z,86.2
2022-12-08T06:01:34.777Z,86.2
2022-12-08T06:02:34.831Z,86.3
2022-12-08T06:03:34.799Z,86.2
2022-12-08T06:04:34.753Z,86.1
2022-12-08T06:05:34.672Z,86.2
2022-12-08T06:06:34.672Z,86.1
2022-12-08T06:07:34.676Z,86.1
2022-12-08T06:08:34.673Z,86.1
2022-12-08T06:09:34.682Z,86.4
2022-12-08T06:10:34.668Z,86.3
2022-12-08T06:11:34.688Z,86.2
2022-12-08T06:12:34.665Z,86.1
2022-12-08T06:13:34.674Z,86.1
2022-12-08T06:14:34.674Z,86
2022-12-08T06:15:34.736Z,86.1
2022-12-08T06:16:34.803Z,86.1
2022-12-08T06:17:34.675Z,86.1
2022-12-08T06:18:34.682Z,86
2022-12-08T06:19:34.681Z,85.9
2022-12-08T06:20:34.677Z,86
2022-12-08T06:21:34.762Z,85.9
2022-12-08T06:22:34.668Z,85.6
2022-12-08T06:23:34.668Z,85.6
2022-12-08T06:24:34.667Z,85.7
2022-12-08T06:25:34.683Z,85.7
2022-12-08T06:26:34.676Z,86
2022-12-08T06:27:34.664Z,85.8
2022-12-08T06:28:56.952Z,85.7
2022-12-08T06:29:34.664Z,85.7
2022-12-08T06:30:34.675Z,85.7
2022-12-08T06:31:34.738Z,85.3
2022-12-08T06:32:34.809Z,85.3
2022-12-08T06:33:34.672Z,85.1
2022-12-08T06:34:34.670Z,84.9
2022-12-08T06:35:34.661Z,85.1
2022-12-08T06:36:34.680Z,85.2
2022-12-08T06:37:34.690Z,85.1
2022-12-08T06:38:37.146Z,85
2022-12-08T06:39:34.661Z,85.1
2022-12-08T06:40:34.664Z,84.9
2022-12-08T06:41:34.751Z,85
2022-12-08T06:42:34.669Z,84.8
2022-12-08T06:43:34.662Z,84.8
2022-12-08T06:44:34.658Z,84.8
2022-12-08T06:45:34.787Z,84.9
2022-12-08T06:46:34.741Z,84.8
2022-12-08T06:47:34.663Z,84.6
2022-12-08T06:48:34.676Z,84.8
2022-12-08T06:49:34.670Z,84.7
2022-12-08T06:50:34.713Z,84.8
2022-12-08T06:51:34.666Z,84.7
2022-12-08T06:52:37.700Z,84.6
2022-12-08T06:53:34.682Z,84.4
2022-12-08T06:54:34.707Z,84.3
2022-12-08T06:55:57.709Z,84.4
2022-12-08T06:56:34.677Z,84.4
2022-12-08T06:57:34.758Z,84.4
2022-12-08T06:58:34.686Z,84.4
2022-12-08T06:59:34.689Z,84.4
2022-12-08T07:00:34.671Z,84.4
2022-12-08T07:01:34.797Z,84.5
2022-12-08T07:02:34.754Z,84.6
2022-12-08T07:03:34.667Z,84.5
2022-12-08T07:04:34.681Z,84.6
2022-12-08T07:05:34.671Z,84.7
2022-12-08T07:06:34.786Z,84.7
2022-12-08T07:07:34.669Z,84.7
2022-12-08T07:08:34.787Z,84.6
2022-12-08T07:09:34.680Z,84.5
2022-12-08T07:10:34.660Z,84.3
2022-12-08T07:11:34.670Z,84.3
2022-12-08T07:12:34.664Z,84.3
2022-12-08T07:13:34.689Z,83.8
2022-12-08T07:14:34.685Z,83.6
2022-12-08T07:15:34.751Z,83.6
2022-12-08T07:16:34.766Z,83.6
2022-12-08T07:17:34.653Z,83.4
2022-12-08T07:18:34.691Z,83.5
2022-12-08T07:19:34.665Z,83.4
2022-12-08T07:20:34.658Z,83.6
2022-12-08T07:21:34.675Z,83.9
2022-12-08T07:22:34.674Z,84.3
2022-12-08T07:23:34.667Z,84.2
2022-12-08T07:24:34.751Z,83.9
2022-12-08T07:25:34.668Z,83.7
2022-12-08T07:26:34.673Z,83.7
2022-12-08T07:27:34.664Z,83.8
2022-12-08T07:28:27.978Z,84
2022-12-08T07:29:34.708Z,83.9
2022-12-08T07:30:34.750Z,83.8
2022-12-08T07:31:34.695Z,83.8
2022-12-08T07:32:34.663Z,83.6
2022-12-08T07:33:34.695Z,83.5
2022-12-08T07:35:35.347Z,83.8
2022-12-08T07:36:34.662Z,83.8
2022-12-08T07:37:34.671Z,83.7
2022-12-08T07:38:34.687Z,83.6
2022-12-08T07:39:34.656Z,83
2022-12-08T07:40:34.698Z,83
2022-12-08T07:41:34.669Z,83.1
2022-12-08T07:42:34.667Z,83.1
2022-12-08T07:43:34.672Z,83.1
2022-12-08T07:44:34.671Z,83
2022-12-08T07:45:34.660Z,83
2022-12-08T07:46:34.785Z,83.1
2022-12-08T07:47:34.669Z,83.5
2022-12-08T07:48:34.679Z,82.9
2022-12-08T07:49:34.746Z,82.7
2022-12-08T07:50:34.663Z,82.7
2022-12-08T07:51:34.677Z,82.4
2022-12-08T07:52:34.658Z,82
2022-12-08T07:53:34.668Z,82.1
2022-12-08T07:54:34.660Z,82.3
2022-12-08T07:55:34.700Z,82.3
2022-12-08T07:56:34.663Z,82.3
2022-12-08T07:57:34.670Z,82.5
2022-12-08T07:58:34.665Z,82.7
2022-12-08T07:59:34.667Z,82.6
2022-12-08T08:00:34.744Z,82.6
2022-12-08T08:01:34.874Z,82.6
2022-12-08T08:02:34.855Z,82.6
2022-12-08T08:03:34.663Z,82.6
2022-12-08T08:04:34.786Z,82.7
2022-12-08T08:05:34.754Z,82.5
2022-12-08T08:06:34.674Z,82.6
2022-12-08T08:07:34.666Z,82.6
2022-12-08T08:08:34.771Z,82.5
2022-12-08T08:09:34.663Z,83
2022-12-08T08:10:34.668Z,83.2
2022-12-08T08:11:34.658Z,83.3
2022-12-08T08:12:34.661Z,83.4
2022-12-08T08:13:34.670Z,83.5
2022-12-08T08:14:34.737Z,83.7
2022-12-08T08:15:34.809Z,83.9
2022-12-08T08:16:38.361Z,83.9
2022-12-08T08:17:34.964Z,83.9
2022-12-08T08:18:34.663Z,83.9
2022-12-08T08:19:34.670Z,84.1
2022-12-08T08:20:34.661Z,84.2
2022-12-08T08:21:45.365Z,84.5
2022-12-08T08:22:34.659Z,84.6
2022-12-08T08:23:34.736Z,84.7
2022-12-08T08:24:34.729Z,85
2022-12-08T08:25:34.655Z,85.1
2022-12-08T08:26:34.664Z,85.1
2022-12-08T08:27:34.663Z,85.2
2022-12-08T08:28:34.653Z,85.3
2022-12-08T08:29:34.760Z,85.4
2022-12-08T08:30:34.749Z,85.5
2022-12-08T08:31:34.846Z,85.3
2022-12-08T08:32:34.847Z,84.9
2022-12-08T08:33:34.951Z,84.3
2022-12-08T08:34:34.679Z,84
2022-12-08T08:35:34.728Z,84.1
2022-12-08T08:36:34.666Z,84.2
2022-12-08T08:37:34.692Z,84.4
2022-12-08T08:38:34.679Z,84.2
2022-12-08T08:39:34.657Z,84.1
2022-12-08T08:40:34.673Z,84.1
2022-12-08T08:41:34.654Z,84.1
2022-12-08T08:42:34.653Z,84.2
2022-12-08T08:43:38.378Z,84.2
2022-12-08T08:44:34.674Z,84.1
2022-12-08T08:45:34.672Z,84.1
2022-12-08T08:46:34.763Z,84.2
2022-12-08T08:47:34.681Z,84.4
2022-12-08T08:48:34.657Z,84.6
2022-12-08T08:49:34.643Z,84.6
2022-12-08T08:50:37.713Z,84.6
2022-12-08T08:51:34.671Z,84.6
2022-12-08T08:52:34.650Z,84.9
2022-12-08T08:53:34.671Z,85.3
2022-12-08T08:54:34.671Z,85.5
2022-12-08T08:55:34.655Z,85.5
2022-12-08T08:56:34.663Z,85.2
2022-12-08T08:57:34.660Z,85.4
2022-12-08T08:58:34.654Z,85.5
2022-12-08T08:59:34.675Z,85.7
2022-12-08T09:00:34.667Z,85.6
2022-12-08T09:01:34.733Z,85.7
2022-12-08T09:02:34.763Z,85.5
2022-12-08T09:03:34.659Z,85.8
2022-12-08T09:04:34.748Z,85.9
2022-12-08T09:05:34.706Z,85.8
2022-12-08T09:06:34.777Z,85.8
2022-12-08T09:07:34.679Z,85.8
2022-12-08T09:08:34.764Z,85.9
2022-12-08T09:09:34.663Z,85.9
2022-12-08T09:10:34.657Z,85.9
2022-12-08T09:11:34.665Z,85.9
2022-12-08T09:12:34.668Z,85.9
2022-12-08T09:13:34.659Z,86.2
2022-12-08T09:14:34.669Z,85.9
2022-12-08T09:15:34.729Z,85.9
2022-12-08T09:16:40.427Z,85.9
2022-12-08T09:17:34.664Z,85.9
2022-12-08T09:18:34.667Z,85.6
2022-12-08T09:19:34.800Z,85.7
2022-12-08T09:20:34.654Z,85.7
2022-12-08T09:21:34.653Z,86
2022-12-08T09:22:34.653Z,86.2
2022-12-08T09:23:35.787Z,86.2
2022-12-08T09:24:34.722Z,86.1
2022-12-08T09:25:34.659Z,86.1
2022-12-08T09:26:34.656Z,86.2
2022-12-08T09:27:34.661Z,86.4
2022-12-08T09:28:34.674Z,86.4
2022-12-08T09:29:36.322Z,86.4
2022-12-08T09:30:34.651Z,86.5
2022-12-08T09:31:34.822Z,86.5
2022-12-08T09:32:34.655Z,86.4
2022-12-08T09:33:34.642Z,86.5
2022-12-08T09:34:34.668Z,86.4
2022-12-08T09:35:34.656Z,86.4
2022-12-08T09:36:34.649Z,86.4
2022-12-08T09:37:34.853Z,86.2
2022-12-08T09:38:34.683Z,86.3
2022-12-08T09:39:34.656Z,86.3
2022-12-08T09:40:34.675Z,86.5
2022-12-08T09:41:40.347Z,86.4
2022-12-08T09:42:34.654Z,85.9
2022-12-08T09:43:34.650Z,85.8
2022-12-08T09:44:34.662Z,85.7
2022-12-08T09:45:34.689Z,85.7
2022-12-08T09:46:34.721Z,85.5
2022-12-08T09:47:36.236Z,85.1
2022-12-08T09:48:34.718Z,84.8
2022-12-08T09:49:34.892Z,84.8
2022-12-08T09:50:34.739Z,84.8
2022-12-08T09:51:34.717Z,84.7
2022-12-08T09:52:34.710Z,84.7
2022-12-08T09:53:35.912Z,84.5
2022-12-08T09:54:34.700Z,84.2
2022-12-08T09:55:34.711Z,84
2022-12-08T09:56:34.730Z,83.7
2022-12-08T09:57:34.723Z,83.5
2022-12-08T09:58:34.708Z,83.3
2022-12-08T09:59:34.694Z,83.4
2022-12-08T10:00:34.744Z,83.1
2022-12-08T10:01:34.794Z,83.1
2022-12-08T10:02:34.717Z,83.2
2022-12-08T10:03:34.738Z,83.2
2022-12-08T10:04:34.900Z,83.1
2022-12-08T10:05:34.762Z,83.1
2022-12-08T10:06:34.710Z,83.3
2022-12-08T10:07:34.734Z,83.2
2022-12-08T10:08:34.829Z,82.8
2022-12-08T10:09:34.710Z,83
2022-12-08T10:10:34.713Z,82.9
2022-12-08T10:11:34.718Z,82.7
2022-12-08T10:12:34.709Z,82.7
2022-12-08T10:13:34.708Z,82.5
2022-12-08T10:14:34.702Z,82.7
2022-12-08T10:15:34.700Z,82.5
2022-12-08T10:16:34.772Z,82.4
2022-12-08T10:17:34.805Z,82.4
2022-12-08T10:18:34.698Z,82.7
2022-12-08T10:19:34.760Z,83.1
2022-12-08T10:20:34.718Z,83.1
2022-12-08T10:21:34.728Z,82.8
2022-12-08T10:22:36.706Z,82.5
2022-12-08T10:23:34.717Z,81.9
2022-12-08T10:24:34.735Z,82.1
2022-12-08T10:25:34.715Z,82.5
2022-12-08T10:26:34.722Z,82.2
2022-12-08T10:27:34.713Z,82.2
2022-12-08T10:28:37.637Z,82.2
2022-12-08T10:29:34.726Z,81.8
2022-12-08T10:30:34.723Z,81.6
2022-12-08T10:31:34.832Z,81.5
2022-12-08T10:32:34.712Z,81.4
2022-12-08T10:33:34.702Z,81.5
2022-12-08T10:34:34.700Z,81.4
2022-12-08T10:35:34.724Z,81.2
2022-12-08T10:36:34.720Z,81.1
2022-12-08T10:37:34.703Z,81.2
2022-12-08T10:38:34.739Z,80.8
2022-12-08T10:39:34.757Z,80.6
2022-12-08T10:40:36.892Z,80.2
2022-12-08T10:41:34.716Z,80.1
2022-12-08T10:42:34.708Z,79.9
2022-12-08T10:43:34.710Z,79.5
2022-12-08T10:44:34.724Z,79.4
2022-12-08T10:45:34.701Z,79.1
2022-12-08T10:46:34.799Z,79.4
2022-12-08T10:47:34.725Z,79.5
2022-12-08T10:48:34.711Z,79.6
2022-12-08T10:49:34.702Z,80
2022-12-08T10:50:34.707Z,80.2
2022-12-08T10:51:34.734Z,80.1
2022-12-08T10:52:34.720Z,79.9
2022-12-08T10:53:34.734Z,79.5
2022-12-08T10:54:34.705Z,79.4
2022-12-08T10:55:34.765Z,79.5
2022-12-08T10:56:34.852Z,79.8
2022-12-08T10:57:34.709Z,79.7
2022-12-08T10:58:34.695Z,80
2022-12-08T10:59:34.715Z,79.3
2022-12-08T11:00:34.881Z,79.7
2022-12-08T11:01:34.853Z,80
2022-12-08T11:02:34.751Z,80.1
2022-12-08T11:03:34.717Z,80.3
2022-12-08T11:04:35.006Z,80.4
2022-12-08T11:05:34.730Z,80.3
2022-12-08T11:06:34.704Z,80.6
2022-12-08T11:07:34.712Z,80.8
2022-12-08T11:08:34.746Z,80.7
2022-12-08T11:09:34.703Z,80.8
2022-12-08T11:10:34.734Z,81.1
2022-12-08T11:11:34.707Z,81.2
2022-12-08T11:12:34.696Z,81.3
2022-12-08T11:13:34.716Z,81.4
2022-12-08T11:14:34.709Z,81.1
2022-12-08T11:15:34.695Z,81
2022-12-08T11:16:34.739Z,80.6
2022-12-08T11:17:34.701Z,80.8
2022-12-08T11:18:34.713Z,80.4
2022-12-08T11:19:34.715Z,80.1
2022-12-08T11:20:34.695Z,80.1
2022-12-08T11:21:34.711Z,80
2022-12-08T11:22:34.734Z,80.2
2022-12-08T11:23:34.706Z,79.9
2022-12-08T11:24:37.603Z,80
2022-12-08T11:25:34.700Z,80.2
2022-12-08T11:26:34.775Z,80.2
2022-12-08T11:27:34.836Z,80.3
2022-12-08T11:28:34.905Z,80.2
2022-12-08T11:29:35.005Z,79.9
2022-12-08T11:30:34.802Z,79.9
2022-12-08T11:31:34.837Z,79.8
2022-12-08T11:32:34.706Z,79.3
2022-12-08T11:33:34.735Z,79.1
2022-12-08T11:34:34.943Z,78.8
2022-12-08T11:35:34.731Z,79
2022-12-08T11:36:34.717Z,78.7
2022-12-08T11:37:35.405Z,78.7
2022-12-08T11:38:34.713Z,78.5
2022-12-08T11:39:34.710Z,78.8
2022-12-08T11:40:34.720Z,78.9
2022-12-08T11:41:34.754Z,78.6
2022-12-08T11:42:34.704Z,78.2
2022-12-08T11:43:34.708Z,78
2022-12-08T11:44:34.697Z,78.3
2022-12-08T11:45:34.757Z,77.9
2022-12-08T11:46:34.840Z,77.7
2022-12-08T11:47:34.732Z,77.7
2022-12-08T11:48:34.728Z,77.9
2022-12-08T11:49:34.744Z,78.5
2022-12-08T11:50:34.723Z,78.7
2022-12-08T11:51:34.711Z,79
2022-12-08T11:52:34.727Z,78.9
2022-12-08T11:53:34.707Z,78.9
2022-12-08T11:54:34.709Z,78.7
2022-12-08T11:55:37.333Z,78.6
2022-12-08T11:56:34.710Z,78.5
2022-12-08T11:57:34.763Z,78.3
2022-12-08T11:58:34.697Z,78.1
2022-12-08T11:59:44.711Z,78.1
2022-12-08T12:00:34.723Z,78.4
2022-12-08T12:01:39.311Z,78.3
2022-12-08T12:02:34.741Z,78.5
2022-12-08T12:03:34.794Z,78.9
2022-12-08T12:04:34.705Z,78.9
2022-12-08T12:06:03.330Z,79
2022-12-08T12:06:58.405Z,79.2
2022-12-08T12:07:34.707Z,79.4
2022-12-08T12:08:34.697Z,79.4
2022-12-08T12:09:34.700Z,79.6
2022-12-08T12:10:34.708Z,79.6
2022-12-08T12:11:34.689Z,79.5
2022-12-08T12:12:39.479Z,79.1
2022-12-08T12:13:34.709Z,79.2
2022-12-08T12:14:34.718Z,79.2
2022-12-08T12:16:34.772Z,79.4
2022-12-08T12:17:34.699Z,79.4
2022-12-08T12:18:34.695Z,78.7
2022-12-08T12:19:34.706Z,78.3
2022-12-08T12:20:34.702Z,78.1
2022-12-08T12:21:34.726Z,78
2022-12-08T12:22:34.705Z,78.3
2022-12-08T12:23:34.702Z,78.1
2022-12-08T12:24:36.229Z,78.3
2022-12-08T12:25:34.711Z,78.2
2022-12-08T12:26:34.695Z,78.3
2022-12-08T12:27:34.779Z,78.7
2022-12-08T12:28:34.697Z,78.8
2022-12-08T12:29:34.704Z,79.2
2022-12-08T12:30:34.775Z,79.2
2022-12-08T12:31:34.717Z,79.4
2022-12-08T12:32:34.694Z,79.6
2022-12-08T12:33:34.712Z,79.5
2022-12-08T12:34:34.740Z,79.7
2022-12-08T12:35:34.697Z,79.6
2022-12-08T12:36:34.703Z,79.9
2022-12-08T12:37:34.694Z,80
2022-12-08T12:38:34.712Z,80.3
2022-12-08T12:39:34.699Z,80.4
2022-12-08T12:40:34.696Z,80.3
2022-12-08T12:41:34.713Z,80.1
2022-12-08T12:42:34.700Z,79.8
2022-12-08T12:43:34.727Z,79.8
2022-12-08T12:44:34.700Z,79.7
2022-12-08T12:45:34.700Z,79.9
2022-12-08T12:46:34.739Z,79.9
2022-12-08T12:47:34.713Z,79.6
2022-12-08T12:48:34.721Z,79.8
2022-12-08T12:49:34.705Z,79.7
2022-12-08T12:50:34.737Z,79.7
2022-12-08T12:51:34.709Z,79.6
2022-12-08T12:52:34.713Z,79.5
2022-12-08T12:53:34.706Z,79.3
2022-12-08T12:55:34.717Z,79.4
2022-12-08T12:56:34.702Z,79.6
2022-12-08T12:57:34.704Z,79.3
2022-12-08T12:58:34.722Z,79.4
2022-12-08T13:00:05.322Z,79.4
2022-12-08T13:00:34.691Z,79.7
2022-12-08T13:01:34.743Z,79.5
2022-12-08T13:02:34.747Z,79.4
2022-12-08T13:03:34.691Z,79
2022-12-08T13:04:34.837Z,79
2022-12-08T13:05:34.784Z,78.9
2022-12-08T13:06:34.705Z,78.7
2022-12-08T13:07:34.701Z,78.9
2022-12-08T13:08:34.707Z,79.1
2022-12-08T13:09:34.726Z,79.1
2022-12-08T13:10:34.698Z,79
2022-12-08T13:11:34.726Z,79.2
2022-12-08T13:12:34.713Z,79.2
2022-12-08T13:13:34.696Z,79.2
2022-12-08T13:14:34.765Z,79.4
2022-12-08T13:15:34.699Z,79.7
2022-12-08T13:16:34.756Z,79.5
2022-12-08T13:17:34.695Z,79.4
2022-12-08T13:18:34.702Z,79.4
2022-12-08T13:19:34.690Z,79.5
2022-12-08T13:20:34.712Z,79.4
2022-12-08T13:21:34.709Z,79.1
2022-12-08T13:22:34.722Z,79
2022-12-08T13:23:34.732Z,78.9
2022-12-08T13:24:34.703Z,78.3
2022-12-08T13:25:36.956Z,77.7
2022-12-08T13:26:34.690Z,77.8
2022-12-08T13:27:34.690Z,77.8
2022-12-08T13:28:34.708Z,77.3
2022-12-08T13:29:34.704Z,76.9
2022-12-08T13:30:34.797Z,76.3